CLT TRACON Summary / KCLT TAF
CLT TRACON Summary:
High pressure is moving into the airspace from the west. Expect VFR conditions with mostly clear skies by morning. Surface winds will be from the north at 5-15kts. Hazards outside convection: are not expected in the TRACON airspace.

Updated:4/15/2014 8:05 PM
CLT Terminal Aerodrome Forecast:

FTUS42 KGSP 160500
TAFCLT
TAF
KCLT 160531Z 1606/1706 01009KT P6SM SKC
     FM161300 02012G20KT P6SM SKC
     FM161800 06010KT P6SM SKC=
CLT TRACON Area Remark:
None.
Convective Gate Forecast / Collaborative Convective Forecast Product / Vertical Wind Profile
Convective Gate Forecast
SIGMETS/ Southeast Radar & Satellite Loops (click on image to enlarge)

Southeast Radar Loop

 



USA.gov is the U.S. government's official web portal to all federal, state and local government web resources and services.